createdAt,value
2019-06-10T00:00:01.759Z,26.80
2019-06-10T00:01:04.215Z,28.30
2019-06-10T00:02:02.546Z,28.30
2019-06-10T00:03:02.881Z,28.00
2019-06-10T00:04:05.094Z,29.60
2019-06-10T00:05:02.832Z,29.90
2019-06-10T00:06:03.729Z,30.90
2019-06-10T00:07:03.778Z,30.00
2019-06-10T00:08:03.877Z,30.10
2019-06-10T00:09:03.675Z,29.80
2019-06-10T00:10:03.803Z,29.50
2019-06-10T00:11:04.392Z,29.50
2019-06-10T00:12:03.982Z,28.90
2019-06-10T00:13:03.669Z,28.30
2019-06-10T00:14:03.970Z,28.80
2019-06-10T00:15:03.025Z,30.40
2019-06-10T00:16:03.111Z,30.30
2019-06-10T00:17:03.520Z,31.10
2019-06-10T00:18:20.823Z,29.80
2019-06-10T00:19:05.916Z,31.90
2019-06-10T00:20:03.372Z,32.30
2019-06-10T00:21:03.290Z,32.60
2019-06-10T00:22:02.419Z,33.80
2019-06-10T00:23:02.518Z,36.00
2019-06-10T00:24:02.577Z,35.80
2019-06-10T00:25:02.666Z,38.30
2019-06-10T00:26:04.482Z,35.50
2019-06-10T00:27:02.888Z,33.40
2019-06-10T00:28:02.994Z,28.90
2019-06-10T00:29:03.146Z,30.30
2019-06-10T00:30:04.303Z,30.40
2019-06-10T00:31:03.690Z,29.60
2019-06-10T00:32:04.701Z,29.60
2019-06-10T00:33:03.513Z,30.10
2019-06-10T00:34:03.054Z,28.80
2019-06-10T00:35:03.210Z,29.80
2019-06-10T00:36:02.326Z,29.80
2019-06-10T00:37:02.648Z,29.10
2019-06-10T00:38:04.358Z,30.50
2019-06-10T00:39:03.506Z,30.90
2019-06-10T00:40:02.611Z,31.80
2019-06-10T00:41:03.969Z,31.00
2019-06-10T00:42:03.176Z,30.40
2019-06-10T00:43:02.588Z,31.30
2019-06-10T00:44:03.686Z,31.50
2019-06-10T00:45:04.004Z,34.30
2019-06-10T00:46:04.338Z,34.50
2019-06-10T00:47:04.812Z,34.60
2019-06-10T00:48:13.630Z,35.30
2019-06-10T00:49:04.174Z,38.30
2019-06-10T00:50:03.877Z,37.90
2019-06-10T00:51:02.581Z,37.30
2019-06-10T00:52:02.719Z,35.40
2019-06-10T00:53:02.334Z,33.90
2019-06-10T00:54:04.924Z,32.80
2019-06-10T00:55:01.756Z,30.30
2019-06-10T00:56:02.425Z,29.60
2019-06-10T00:57:02.281Z,31.90
2019-06-10T00:58:02.367Z,30.90
2019-06-10T00:59:02.497Z,30.20
2019-06-10T01:00:01.717Z,28.40
2019-06-10T01:01:02.547Z,28.70
2019-06-10T01:02:01.715Z,28.80
2019-06-10T01:03:02.375Z,28.50
2019-06-10T01:04:02.960Z,28.30
2019-06-10T01:05:01.000Z,28.70
2019-06-10T01:06:02.584Z,27.80
2019-06-10T01:07:02.374Z,27.70
2019-06-10T01:08:01.334Z,28.20
2019-06-10T01:09:02.606Z,28.20
2019-06-10T01:10:01.138Z,27.10
2019-06-10T01:11:09.259Z,26.80
2019-06-10T01:12:01.205Z,28.00
2019-06-10T01:13:00.912Z,29.30
2019-06-10T01:14:01.431Z,29.40
2019-06-10T01:15:01.665Z,28.70
2019-06-10T01:16:01.657Z,28.80
2019-06-10T01:17:01.298Z,28.60
2019-06-10T01:18:01.363Z,27.10
2019-06-10T01:19:01.442Z,29.00
2019-06-10T01:20:01.603Z,27.20
2019-06-10T01:21:01.989Z,27.60
2019-06-10T01:22:01.564Z,28.60
2019-06-10T01:23:01.545Z,27.20
2019-06-10T01:24:01.178Z,27.60
2019-06-10T01:25:01.723Z,28.50
2019-06-10T01:26:01.561Z,28.20
2019-06-10T01:27:01.379Z,28.40
2019-06-10T01:28:00.662Z,29.40
2019-06-10T01:29:00.961Z,29.60
2019-06-10T01:30:01.768Z,29.60
2019-06-10T01:31:01.065Z,29.60
2019-06-10T01:32:01.717Z,29.80
2019-06-10T01:33:01.195Z,30.60
2019-06-10T01:34:00.749Z,30.70
2019-06-10T01:35:01.258Z,31.20
2019-06-10T01:36:00.860Z,30.50
2019-06-10T01:37:01.460Z,32.00
2019-06-10T01:38:01.045Z,32.70
2019-06-10T01:39:01.664Z,32.30
2019-06-10T01:40:00.806Z,31.50
2019-06-10T01:41:01.529Z,32.10
2019-06-10T01:42:00.644Z,32.80
2019-06-10T01:43:01.082Z,33.40
2019-06-10T01:44:01.735Z,33.70
2019-06-10T01:45:01.183Z,35.10
2019-06-10T01:46:01.564Z,35.70
2019-06-10T01:47:00.958Z,35.70
2019-06-10T01:48:01.433Z,35.20
2019-06-10T01:49:00.762Z,34.70
2019-06-10T01:50:00.805Z,35.10
2019-06-10T01:51:01.852Z,33.90
2019-06-10T01:52:01.664Z,34.00
2019-06-10T01:53:00.587Z,33.50
2019-06-10T01:54:01.339Z,33.80
2019-06-10T01:55:01.510Z,32.70
2019-06-10T01:56:01.033Z,34.70
2019-06-10T01:57:01.493Z,34.50
2019-06-10T01:58:00.857Z,33.40
2019-06-10T01:59:01.444Z,32.40
2019-06-10T02:00:00.990Z,33.10
2019-06-10T02:01:01.425Z,35.00
2019-06-10T02:02:00.991Z,31.80
2019-06-10T02:03:03.566Z,31.70
2019-06-10T02:04:00.907Z,31.70
2019-06-10T02:05:01.598Z,32.50
2019-06-10T02:06:01.384Z,31.60
2019-06-10T02:07:01.277Z,32.50
2019-06-10T02:08:00.583Z,31.70
2019-06-10T02:09:01.474Z,31.70
2019-06-10T02:10:01.169Z,33.20
2019-06-10T02:11:01.216Z,32.60
2019-06-10T02:12:02.009Z,31.20
2019-06-10T02:13:01.331Z,31.00
2019-06-10T02:14:00.886Z,30.30
2019-06-10T02:15:01.267Z,29.10
2019-06-10T02:16:01.001Z,30.30
2019-06-10T02:17:01.260Z,32.50
2019-06-10T02:18:01.109Z,31.40
2019-06-10T02:19:03.387Z,31.40
2019-06-10T02:20:01.109Z,29.30
2019-06-10T02:21:00.881Z,30.80
2019-06-10T02:22:01.245Z,30.20
2019-06-10T02:23:01.913Z,30.80
2019-06-10T02:24:00.982Z,30.50
2019-06-10T02:25:01.246Z,30.20
2019-06-10T02:26:01.587Z,30.50
2019-06-10T02:27:01.088Z,29.70
2019-06-10T02:28:01.060Z,28.70
2019-06-10T02:29:00.690Z,28.30
2019-06-10T02:30:03.863Z,27.30
2019-06-10T02:31:03.445Z,27.60
2019-06-10T02:32:04.226Z,28.60
2019-06-10T02:33:02.298Z,27.80
2019-06-10T02:34:02.579Z,28.00
2019-06-10T02:35:13.139Z,27.10
2019-06-10T02:36:03.378Z,28.10
2019-06-10T02:36:59.817Z,27.80
2019-06-10T02:37:59.770Z,28.30
2019-06-10T02:38:59.759Z,25.80
2019-06-10T02:40:04.105Z,27.50
2019-06-10T02:41:03.640Z,28.00
2019-06-10T02:41:59.722Z,27.60
2019-06-10T02:43:03.287Z,27.90
2019-06-10T02:43:59.705Z,27.40
2019-06-10T02:45:03.240Z,27.80
2019-06-10T02:46:00.006Z,27.00
2019-06-10T02:47:03.151Z,27.20
2019-06-10T02:47:59.645Z,26.90
2019-06-10T02:49:17.709Z,26.00
2019-06-10T02:50:07.006Z,25.50
2019-06-10T02:51:00.051Z,25.80
2019-06-10T02:52:03.096Z,25.90
2019-06-10T02:52:59.560Z,25.80
2019-06-10T02:53:59.567Z,26.90
2019-06-10T02:54:59.554Z,25.30
2019-06-10T02:55:59.931Z,25.50
2019-06-10T02:56:59.534Z,25.00
2019-06-10T02:57:59.552Z,24.80
2019-06-10T02:58:59.497Z,25.80
2019-06-10T02:59:59.484Z,24.70
2019-06-10T03:00:59.882Z,24.20
2019-06-10T03:01:59.444Z,25.80
2019-06-10T03:02:59.442Z,24.30
2019-06-10T03:03:59.432Z,25.30
2019-06-10T03:04:59.400Z,26.50
2019-06-10T03:06:00.033Z,24.90
2019-06-10T03:06:59.383Z,24.40
2019-06-10T03:07:59.383Z,23.90
2019-06-10T03:08:59.347Z,23.40
2019-06-10T03:09:59.401Z,23.90
2019-06-10T03:10:59.694Z,24.00
2019-06-10T03:11:59.313Z,23.10
2019-06-10T03:12:59.324Z,24.30
2019-06-10T03:13:59.287Z,24.30
2019-06-10T03:14:59.289Z,23.20
2019-06-10T03:15:59.669Z,23.30
2019-06-10T03:16:59.254Z,23.00
2019-06-10T03:17:59.284Z,23.20
2019-06-10T03:18:59.215Z,23.70
2019-06-10T03:19:59.202Z,23.00
2019-06-10T03:21:02.403Z,22.90
2019-06-10T03:21:59.185Z,24.10
2019-06-10T03:22:59.188Z,22.80
2019-06-10T03:23:59.171Z,23.10
2019-06-10T03:24:59.167Z,23.20
2019-06-10T03:25:59.157Z,22.80
2019-06-10T03:26:59.539Z,22.90
2019-06-10T03:27:59.112Z,22.60
2019-06-10T03:28:59.097Z,22.70
2019-06-10T03:29:59.102Z,21.40
2019-06-10T03:30:59.207Z,21.90
2019-06-10T03:31:59.048Z,22.30
2019-06-10T03:32:59.453Z,22.00
2019-06-10T03:33:59.051Z,21.90
2019-06-10T03:34:59.012Z,22.40
2019-06-10T03:35:59.019Z,22.90
2019-06-10T03:36:59.000Z,21.60
2019-06-10T03:37:58.989Z,22.60
2019-06-10T03:38:59.567Z,22.50
2019-06-10T03:39:58.954Z,22.10
2019-06-10T03:40:58.964Z,21.50
2019-06-10T03:41:58.951Z,22.50
2019-06-10T03:42:58.907Z,21.20
2019-06-10T03:43:58.900Z,22.00
2019-06-10T03:44:59.200Z,23.80
2019-06-10T03:45:58.877Z,22.00
2019-06-10T03:46:58.857Z,22.70
2019-06-10T03:47:58.850Z,22.40
2019-06-10T03:48:58.853Z,23.40
2019-06-10T03:49:58.823Z,22.50
2019-06-10T03:50:59.415Z,22.90
2019-06-10T03:51:58.808Z,22.60
2019-06-10T03:53:01.110Z,23.30
2019-06-10T03:53:58.814Z,23.10
2019-06-10T03:54:58.751Z,21.70
2019-06-10T03:55:58.759Z,24.00
2019-06-10T03:56:59.098Z,23.20
2019-06-10T03:57:58.702Z,23.10
2019-06-10T03:58:58.707Z,23.10
2019-06-10T03:59:58.686Z,22.80
2019-06-10T04:00:58.689Z,23.00
2019-06-10T04:01:59.170Z,23.50
2019-06-10T04:02:58.635Z,23.50
2019-06-10T04:03:58.647Z,23.90
2019-06-10T04:04:58.630Z,25.30
2019-06-10T04:05:58.625Z,24.00
2019-06-10T04:06:58.648Z,23.80
2019-06-10T04:07:58.939Z,23.70
2019-06-10T04:08:58.585Z,24.40
2019-06-10T04:09:58.565Z,24.20
2019-06-10T04:10:58.560Z,23.30
2019-06-10T04:11:58.556Z,24.30
2019-06-10T04:12:58.881Z,24.20
2019-06-10T04:13:58.505Z,27.30
2019-06-10T04:14:58.506Z,29.00
2019-06-10T04:15:58.477Z,29.60
2019-06-10T04:16:58.476Z,27.80
2019-06-10T04:17:58.821Z,28.20
2019-06-10T04:18:58.438Z,33.10
2019-06-10T04:20:09.350Z,33.60
2019-06-10T04:20:58.418Z,32.50
2019-06-10T04:21:58.395Z,33.90
2019-06-10T04:22:58.904Z,33.70
2019-06-10T04:23:58.419Z,34.10
2019-06-10T04:24:58.362Z,32.60
2019-06-10T04:25:58.359Z,32.10
2019-06-10T04:26:58.339Z,33.40
2019-06-10T04:27:58.671Z,34.00
2019-06-10T04:28:58.324Z,34.40
2019-06-10T04:29:58.289Z,33.90
2019-06-10T04:30:58.264Z,32.60
2019-06-10T04:31:58.262Z,32.10
2019-06-10T04:32:58.274Z,33.00
2019-06-10T04:33:58.657Z,34.30
2019-06-10T04:34:58.278Z,33.00
2019-06-10T04:35:58.204Z,34.90
2019-06-10T04:36:58.190Z,33.30
2019-06-10T04:37:58.198Z,32.60
2019-06-10T04:38:58.156Z,33.50
2019-06-10T04:39:58.770Z,32.60
2019-06-10T04:40:58.164Z,31.00
2019-06-10T04:41:58.136Z,32.30
2019-06-10T04:42:58.105Z,32.50
2019-06-10T04:43:58.105Z,31.20
2019-06-10T04:44:58.102Z,31.90
2019-06-10T04:45:58.597Z,30.60
2019-06-10T04:46:58.079Z,31.20
2019-06-10T04:47:58.071Z,30.50
2019-06-10T04:48:58.034Z,31.10
2019-06-10T04:49:58.066Z,30.00
2019-06-10T04:50:58.012Z,29.80
2019-06-10T04:51:58.395Z,29.80
2019-06-10T04:52:57.987Z,30.60
2019-06-10T04:53:57.968Z,29.80
2019-06-10T04:54:57.962Z,29.10
2019-06-10T04:55:57.948Z,28.50
2019-06-10T04:56:57.929Z,28.80
2019-06-10T04:57:58.409Z,27.20
2019-06-10T04:58:57.899Z,27.00
2019-06-10T04:59:57.881Z,26.90
2019-06-10T05:00:57.889Z,28.30
2019-06-10T05:01:57.862Z,29.70
2019-06-10T05:02:57.846Z,29.20
2019-06-10T05:03:58.246Z,28.00
2019-06-10T05:04:57.812Z,29.30
2019-06-10T05:05:57.821Z,27.30
2019-06-10T05:06:57.794Z,26.60
2019-06-10T05:07:57.766Z,28.50
2019-06-10T05:08:57.778Z,28.30
2019-06-10T05:09:58.107Z,28.40
2019-06-10T05:10:57.744Z,27.10
2019-06-10T05:11:57.736Z,27.50
2019-06-10T05:12:57.720Z,25.80
2019-06-10T05:13:57.713Z,27.20
2019-06-10T05:14:58.137Z,27.20
2019-06-10T05:15:57.682Z,27.10
2019-06-10T05:16:57.656Z,26.20
2019-06-10T05:17:57.632Z,29.30
2019-06-10T05:18:57.644Z,28.50
2019-06-10T05:19:58.233Z,31.00
2019-06-10T05:20:58.707Z,31.30
2019-06-10T05:21:57.603Z,32.10
2019-06-10T05:22:57.573Z,30.20
2019-06-10T05:23:57.570Z,30.90
2019-06-10T05:24:57.541Z,31.40
2019-06-10T05:25:57.930Z,30.80
2019-06-10T05:26:57.526Z,30.50
2019-06-10T05:27:57.562Z,31.60
2019-06-10T05:28:57.504Z,31.40
2019-06-10T05:29:57.533Z,30.60
2019-06-10T05:30:57.837Z,30.10
2019-06-10T05:31:57.477Z,29.80
2019-06-10T05:32:57.489Z,29.20
2019-06-10T05:33:57.425Z,29.50
2019-06-10T05:34:57.429Z,29.90
2019-06-10T05:35:57.393Z,31.00
2019-06-10T05:36:57.850Z,30.70
2019-06-10T05:37:57.374Z,30.80
2019-06-10T05:38:57.381Z,30.40
2019-06-10T05:39:57.371Z,31.10
2019-06-10T05:40:57.338Z,29.40
2019-06-10T05:41:57.330Z,29.80
2019-06-10T05:42:57.798Z,30.10
2019-06-10T05:43:57.307Z,30.20
2019-06-10T05:44:57.332Z,29.50
2019-06-10T05:45:57.258Z,30.10
2019-06-10T05:46:57.263Z,31.00
2019-06-10T05:47:57.229Z,30.20
2019-06-10T05:48:57.743Z,31.70
2019-06-10T05:49:57.202Z,30.80
2019-06-10T05:51:02.870Z,31.60
2019-06-10T05:51:57.197Z,31.40
2019-06-10T05:52:57.169Z,31.70
2019-06-10T05:53:57.169Z,30.90
2019-06-10T05:54:57.551Z,32.10
2019-06-10T05:55:57.152Z,30.20
2019-06-10T05:56:57.124Z,30.70
2019-06-10T05:57:57.099Z,31.60
2019-06-10T05:58:57.134Z,32.50
2019-06-10T05:59:57.078Z,30.60
2019-06-10T06:00:57.435Z,30.90
2019-06-10T06:01:57.055Z,29.60
2019-06-10T06:02:57.049Z,30.20
2019-06-10T06:03:57.043Z,30.30
2019-06-10T06:04:57.001Z,29.30
2019-06-10T06:05:56.991Z,31.30
2019-06-10T06:06:57.429Z,30.20
2019-06-10T06:08:04.808Z,31.30
2019-06-10T06:08:56.959Z,29.40
2019-06-10T06:09:56.943Z,30.30
2019-06-10T06:10:56.931Z,30.30
2019-06-10T06:11:56.920Z,28.80
2019-06-10T06:12:57.244Z,29.90
2019-06-10T06:13:56.877Z,29.90
2019-06-10T06:14:56.873Z,30.70
2019-06-10T06:15:56.839Z,28.20
2019-06-10T06:16:56.863Z,29.90
2019-06-10T06:18:07.205Z,30.20
2019-06-10T06:18:57.163Z,29.80
2019-06-10T06:19:56.821Z,29.10
2019-06-10T06:20:56.774Z,29.50
2019-06-10T06:21:56.756Z,28.60
2019-06-10T06:22:56.769Z,30.00
2019-06-10T06:23:57.099Z,30.20
2019-06-10T06:24:56.740Z,30.60
2019-06-10T06:25:56.722Z,29.40
2019-06-10T06:26:56.685Z,28.70
2019-06-10T06:27:56.710Z,30.30
2019-06-10T06:28:57.130Z,30.70
2019-06-10T06:29:56.672Z,29.60
2019-06-10T06:30:56.663Z,30.40
2019-06-10T06:31:56.677Z,32.50
2019-06-10T06:32:56.665Z,30.60
2019-06-10T06:33:56.980Z,30.70
2019-06-10T06:34:56.602Z,30.30
2019-06-10T06:35:56.576Z,29.40
2019-06-10T06:36:56.570Z,29.50
2019-06-10T06:37:56.589Z,29.90
2019-06-10T06:38:56.552Z,29.00
2019-06-10T06:39:58.527Z,31.10
2019-06-10T06:40:56.526Z,31.40
2019-06-10T06:41:56.539Z,30.20
2019-06-10T06:42:56.483Z,30.70
2019-06-10T06:43:56.471Z,28.50
2019-06-10T06:44:56.442Z,29.90
2019-06-10T06:45:57.040Z,29.90
2019-06-10T06:46:56.439Z,28.70
2019-06-10T06:47:56.411Z,30.00
2019-06-10T06:48:56.415Z,29.00
2019-06-10T06:49:56.377Z,29.60
2019-06-10T06:51:04.025Z,28.90
2019-06-10T06:51:59.327Z,30.00
2019-06-10T06:53:27.876Z,28.70
2019-06-10T06:53:56.540Z,29.20
2019-06-10T06:54:56.322Z,29.40
2019-06-10T06:55:56.320Z,28.70
2019-06-10T06:56:56.735Z,29.10
2019-06-10T06:57:56.289Z,28.20
2019-06-10T06:58:56.250Z,28.70
2019-06-10T06:59:56.236Z,28.60
2019-06-10T07:01:05.943Z,29.60
2019-06-10T07:01:56.225Z,28.60
2019-06-10T07:02:56.659Z,29.20
2019-06-10T07:03:56.197Z,30.70
2019-06-10T07:04:56.218Z,30.10
2019-06-10T07:05:56.153Z,30.20
2019-06-10T07:06:56.138Z,31.50
2019-06-10T07:07:56.131Z,30.50
2019-06-10T07:09:04.211Z,31.20
2019-06-10T07:09:56.122Z,29.10
2019-06-10T07:10:56.097Z,29.30
2019-06-10T07:11:56.078Z,28.80
2019-06-10T07:12:56.064Z,29.10
2019-06-10T07:13:56.057Z,29.50
2019-06-10T07:14:56.440Z,28.10
2019-06-10T07:15:56.027Z,28.40
2019-06-10T07:16:56.013Z,27.00
2019-06-10T07:17:56.034Z,27.90
2019-06-10T07:18:55.990Z,28.10
2019-06-10T07:19:57.659Z,28.10
2019-06-10T07:20:56.459Z,28.00
2019-06-10T07:22:08.633Z,29.40
2019-06-10T07:22:55.917Z,27.60
2019-06-10T07:23:55.910Z,29.00
2019-06-10T07:24:55.895Z,29.30
2019-06-10T07:25:55.885Z,29.00
2019-06-10T07:26:56.221Z,28.50
2019-06-10T07:27:55.845Z,28.30
2019-06-10T07:28:55.840Z,28.90
2019-06-10T07:29:55.829Z,29.10
2019-06-10T07:30:55.809Z,27.50
2019-06-10T07:31:56.308Z,28.60
2019-06-10T07:32:55.779Z,28.90
2019-06-10T07:33:55.762Z,30.10
2019-06-10T07:34:55.759Z,31.10
2019-06-10T07:35:56.577Z,32.00
2019-06-10T07:36:55.707Z,32.80
2019-06-10T07:37:56.119Z,31.90
2019-06-10T07:38:55.700Z,33.20
2019-06-10T07:39:55.686Z,33.30
2019-06-10T07:40:55.668Z,32.30
2019-06-10T07:41:55.652Z,33.70
2019-06-10T07:42:56.080Z,32.70
2019-06-10T07:43:55.631Z,34.20
2019-06-10T07:44:55.609Z,33.70
2019-06-10T07:45:55.582Z,33.90
2019-06-10T07:46:55.574Z,33.70
2019-06-10T07:47:55.573Z,34.90
2019-06-10T07:48:56.726Z,34.00
2019-06-10T07:49:55.547Z,33.80
2019-06-10T07:50:55.527Z,33.30
2019-06-10T07:51:55.524Z,32.10
2019-06-10T07:52:55.503Z,32.20
2019-06-10T07:53:55.478Z,33.50
2019-06-10T07:54:56.030Z,32.90
2019-06-10T07:55:55.453Z,34.70
2019-06-10T07:56:55.434Z,34.30
2019-06-10T07:57:55.432Z,33.60
2019-06-10T07:58:55.457Z,33.50
2019-06-10T07:59:55.389Z,34.10
2019-06-10T08:00:56.084Z,32.10
2019-06-10T08:01:55.544Z,32.50
2019-06-10T08:02:55.358Z,31.00
2019-06-10T08:03:55.337Z,31.80
2019-06-10T08:04:55.319Z,31.00
2019-06-10T08:05:55.716Z,29.80
2019-06-10T08:06:55.297Z,30.50
2019-06-10T08:07:55.303Z,29.90
2019-06-10T08:08:55.270Z,30.00
2019-06-10T08:09:55.255Z,30.50
2019-06-10T08:10:55.247Z,30.10
2019-06-10T08:11:55.696Z,30.90
2019-06-10T08:12:55.216Z,30.30
2019-06-10T08:13:55.193Z,31.60
2019-06-10T08:14:55.194Z,32.40
2019-06-10T08:15:55.162Z,31.10
2019-06-10T08:16:55.147Z,32.20
2019-06-10T08:17:55.680Z,32.50
2019-06-10T08:19:20.013Z,34.10
2019-06-10T08:19:55.111Z,33.50
2019-06-10T08:20:55.110Z,34.00
2019-06-10T08:21:55.070Z,33.40
2019-06-10T08:22:57.747Z,34.60
2019-06-10T08:23:55.712Z,35.20
2019-06-10T08:24:55.043Z,34.40
2019-06-10T08:25:57.716Z,33.30
2019-06-10T08:26:55.021Z,35.70
2019-06-10T08:27:55.007Z,36.10
2019-06-10T08:28:54.977Z,36.20
2019-06-10T08:30:14.122Z,36.90
2019-06-10T08:30:55.003Z,36.10
2019-06-10T08:31:54.947Z,35.00
2019-06-10T08:32:56.595Z,34.80
2019-06-10T08:33:54.955Z,36.40
2019-06-10T08:34:54.904Z,35.70
2019-06-10T08:36:00.195Z,34.80
2019-06-10T08:36:54.891Z,37.70
2019-06-10T08:37:54.869Z,36.10
2019-06-10T08:38:54.863Z,37.30
2019-06-10T08:39:54.846Z,37.30
2019-06-10T08:40:54.798Z,37.50
2019-06-10T08:41:55.291Z,37.80
2019-06-10T08:42:54.785Z,37.20
2019-06-10T08:43:54.785Z,37.30
2019-06-10T08:44:54.805Z,37.30
2019-06-10T08:45:54.753Z,37.80
2019-06-10T08:46:54.721Z,38.80
2019-06-10T08:47:55.107Z,37.70
2019-06-10T08:48:54.698Z,39.10
2019-06-10T08:49:54.727Z,39.60
2019-06-10T08:50:54.670Z,37.40
2019-06-10T08:51:54.667Z,38.50
2019-06-10T08:53:12.809Z,38.50
2019-06-10T08:53:55.080Z,38.90
2019-06-10T08:54:54.734Z,38.10
2019-06-10T08:55:55.828Z,37.70
2019-06-10T08:56:54.590Z,39.30
2019-06-10T08:57:54.558Z,37.70
2019-06-10T08:58:54.905Z,39.20
2019-06-10T08:59:54.535Z,38.40
2019-06-10T09:00:54.530Z,39.50
2019-06-10T09:01:56.799Z,38.20
2019-06-10T09:02:54.514Z,39.40
2019-06-10T09:03:54.483Z,37.50
2019-06-10T09:04:54.872Z,38.70
2019-06-10T09:05:57.701Z,37.90
2019-06-10T09:06:54.441Z,37.50
2019-06-10T09:07:54.631Z,37.30
2019-06-10T09:08:54.769Z,39.60
2019-06-10T09:09:54.399Z,40.40
2019-06-10T09:10:55.375Z,41.90
2019-06-10T09:11:54.791Z,41.30
2019-06-10T09:12:54.771Z,42.50
2019-06-10T09:13:54.325Z,38.90
2019-06-10T09:14:54.331Z,39.20
2019-06-10T09:16:10.070Z,39.50
2019-06-10T09:16:54.555Z,39.50
2019-06-10T09:17:56.131Z,39.90
2019-06-10T09:18:55.270Z,38.70
2019-06-10T09:19:54.405Z,39.60
2019-06-10T09:20:56.150Z,41.50
2019-06-10T09:21:56.316Z,39.60
2019-06-10T09:23:13.273Z,41.00
2019-06-10T09:23:59.732Z,39.00
2019-06-10T09:24:56.333Z,42.60
2019-06-10T09:25:57.344Z,40.20
2019-06-10T09:26:54.988Z,40.70
2019-06-10T09:27:54.812Z,40.70
2019-06-10T09:28:56.596Z,39.60
2019-06-10T09:29:55.541Z,41.20
2019-06-10T09:30:58.898Z,39.40
2019-06-10T09:31:55.919Z,40.10
2019-06-10T09:32:56.841Z,41.90
2019-06-10T09:33:56.850Z,42.40
2019-06-10T09:34:57.313Z,40.90
2019-06-10T09:35:55.018Z,41.20
2019-06-10T09:36:56.575Z,41.80
2019-06-10T09:37:55.614Z,41.50
2019-06-10T09:38:55.692Z,42.30
2019-06-10T09:39:59.459Z,44.60
2019-06-10T09:41:01.210Z,42.30
2019-06-10T09:42:01.066Z,43.00
2019-06-10T09:42:55.191Z,44.90
2019-06-10T09:43:56.848Z,44.60
2019-06-10T09:44:55.627Z,43.80
2019-06-10T09:45:56.401Z,44.20
2019-06-10T09:46:55.946Z,43.00
2019-06-10T09:47:59.670Z,44.00
2019-06-10T09:48:55.950Z,44.60
2019-06-10T09:49:55.687Z,43.70
2019-06-10T09:50:58.567Z,44.90
2019-06-10T09:51:57.172Z,45.00
2019-06-10T09:52:57.112Z,43.90
2019-06-10T09:54:02.434Z,46.80
2019-06-10T09:54:56.817Z,45.50
2019-06-10T09:55:55.548Z,46.60
2019-06-10T09:56:54.640Z,46.40
2019-06-10T09:57:59.793Z,47.30
2019-06-10T09:58:55.372Z,47.50
2019-06-10T09:59:56.253Z,47.10
2019-06-10T10:00:57.549Z,47.30
2019-06-10T10:01:58.062Z,48.00
2019-06-10T10:02:56.217Z,47.60
2019-06-10T10:03:59.281Z,47.30
2019-06-10T10:04:58.105Z,48.40
2019-06-10T10:06:07.351Z,48.30
2019-06-10T10:06:57.130Z,47.80
2019-06-10T10:07:57.263Z,47.80
2019-06-10T10:08:58.053Z,49.40
2019-06-10T10:09:57.160Z,47.40
2019-06-10T10:10:58.480Z,47.80
2019-06-10T10:11:55.979Z,47.60
2019-06-10T10:12:55.800Z,48.20
2019-06-10T10:13:53.854Z,49.30
2019-06-10T10:14:56.141Z,48.90
2019-06-10T10:15:54.294Z,49.00
2019-06-10T10:16:59.857Z,49.20
2019-06-10T10:17:56.320Z,48.40
2019-06-10T10:19:00.308Z,50.30
2019-06-10T10:19:56.748Z,47.30
2019-06-10T10:20:58.465Z,48.30
2019-06-10T10:21:58.262Z,47.80
2019-06-10T10:22:55.423Z,48.40
2019-06-10T10:24:06.327Z,48.80
2019-06-10T10:24:56.676Z,46.70
2019-06-10T10:25:56.906Z,48.70
2019-06-10T10:26:57.286Z,50.30
2019-06-10T10:27:57.273Z,47.80
2019-06-10T10:28:56.975Z,48.00
2019-06-10T10:29:56.958Z,49.30
2019-06-10T10:30:57.625Z,49.90
2019-06-10T10:31:54.085Z,48.90
2019-06-10T10:32:54.044Z,49.60
2019-06-10T10:33:53.217Z,49.60
2019-06-10T10:34:56.417Z,49.60
2019-06-10T10:35:53.646Z,50.90
2019-06-10T10:36:57.005Z,48.70
2019-06-10T10:37:54.314Z,48.70
2019-06-10T10:38:53.520Z,48.50
2019-06-10T10:39:54.450Z,50.40
2019-06-10T10:40:58.604Z,49.20
2019-06-10T10:41:56.586Z,48.50
2019-06-10T10:43:01.797Z,49.20
2019-06-10T10:43:58.155Z,49.40
2019-06-10T10:44:58.932Z,49.40
2019-06-10T10:45:59.645Z,48.50
2019-06-10T10:46:55.674Z,49.20
2019-06-10T10:47:56.658Z,49.60
2019-06-10T10:48:55.697Z,49.40
2019-06-10T10:49:55.561Z,48.00
2019-06-10T10:50:55.883Z,48.10
2019-06-10T10:51:53.605Z,49.60
2019-06-10T10:52:53.920Z,48.70
2019-06-10T10:54:18.226Z,48.20
2019-06-10T10:54:54.292Z,47.40
2019-06-10T10:55:53.551Z,46.30
2019-06-10T10:56:58.422Z,46.80
2019-06-10T10:57:54.652Z,47.70
2019-06-10T10:58:57.683Z,47.40
2019-06-10T10:59:56.021Z,47.00
2019-06-10T11:00:56.754Z,48.70
2019-06-10T11:01:53.574Z,49.50
2019-06-10T11:02:54.305Z,48.90
2019-06-10T11:03:58.755Z,47.70
2019-06-10T11:04:55.414Z,48.90
2019-06-10T11:06:00.442Z,49.80
2019-06-10T11:06:55.626Z,47.90
2019-06-10T11:07:55.188Z,50.20
2019-06-10T11:08:57.406Z,48.40
2019-06-10T11:09:55.214Z,47.10
2019-06-10T11:10:58.861Z,48.10
2019-06-10T11:11:54.903Z,47.00
2019-06-10T11:12:54.143Z,49.70
2019-06-10T11:13:56.434Z,48.30
2019-06-10T11:14:55.326Z,48.40
2019-06-10T11:15:55.365Z,48.50
2019-06-10T11:16:55.153Z,47.70
2019-06-10T11:17:55.115Z,49.70
2019-06-10T11:18:56.162Z,47.70
2019-06-10T11:19:54.379Z,47.70
2019-06-10T11:20:53.997Z,47.70
2019-06-10T11:21:53.584Z,47.70
2019-06-10T11:22:53.660Z,47.50
2019-06-10T11:23:56.357Z,45.80
2019-06-10T11:24:54.380Z,46.00
2019-06-10T11:25:55.461Z,45.50
2019-06-10T11:26:56.042Z,45.90
2019-06-10T11:27:54.571Z,44.80
2019-06-10T11:28:54.489Z,44.30
2019-06-10T11:29:53.613Z,45.10
2019-06-10T11:30:56.349Z,46.30
2019-06-10T11:31:55.133Z,44.50
2019-06-10T11:32:55.838Z,45.20
2019-06-10T11:33:57.010Z,46.20
2019-06-10T11:34:55.519Z,51.30
2019-06-10T11:35:55.139Z,39.60
2019-06-10T11:36:55.036Z,39.90
2019-06-10T11:37:54.011Z,38.80
2019-06-10T11:38:55.145Z,38.00
2019-06-10T11:39:52.375Z,38.60
2019-06-10T11:40:54.980Z,45.80
2019-06-10T11:41:53.307Z,38.20
2019-06-10T11:42:56.404Z,38.20
2019-06-10T11:43:55.037Z,36.80
2019-06-10T11:44:57.380Z,36.10
2019-06-10T11:45:58.873Z,35.30
2019-06-10T11:46:54.856Z,37.50
2019-06-10T11:47:54.945Z,39.40
2019-06-10T11:48:55.601Z,35.40
2019-06-10T11:49:54.962Z,33.00
2019-06-10T11:50:54.734Z,32.30
2019-06-10T11:51:53.950Z,30.70
2019-06-10T11:52:55.407Z,32.20
2019-06-10T11:53:54.368Z,32.10
2019-06-10T11:55:05.688Z,32.00
2019-06-10T11:55:53.732Z,32.80
2019-06-10T11:56:54.590Z,32.90
2019-06-10T11:57:54.930Z,30.20
2019-06-10T11:58:54.953Z,31.40
2019-06-10T11:59:53.231Z,28.50
2019-06-10T12:00:55.854Z,29.10
2019-06-10T12:01:55.967Z,30.70
2019-06-10T12:02:53.774Z,26.10
2019-06-10T12:03:54.060Z,28.40
2019-06-10T12:04:53.702Z,30.30
2019-06-10T12:05:55.493Z,29.40
2019-06-10T12:06:52.648Z,28.40
2019-06-10T12:07:55.992Z,29.00
2019-06-10T12:08:57.336Z,29.00
2019-06-10T12:09:55.267Z,28.70
2019-06-10T12:10:56.743Z,27.50
2019-06-10T12:11:54.765Z,28.00
2019-06-10T12:12:56.424Z,27.20
2019-06-10T12:13:53.715Z,26.70
2019-06-10T12:14:55.283Z,25.10
2019-06-10T12:16:32.756Z,24.30
2019-06-10T12:17:17.607Z,28.60
2019-06-10T12:17:58.498Z,27.90
2019-06-10T12:18:53.866Z,26.50
2019-06-10T12:19:55.349Z,26.00
2019-06-10T12:20:55.978Z,25.50
2019-06-10T12:21:55.665Z,27.40
2019-06-10T12:22:56.274Z,25.90
2019-06-10T12:23:55.937Z,25.20
2019-06-10T12:25:06.214Z,23.30
2019-06-10T12:25:54.586Z,26.00
2019-06-10T12:26:55.234Z,23.90
2019-06-10T12:27:55.250Z,24.40
2019-06-10T12:28:54.622Z,24.70
2019-06-10T12:29:54.089Z,25.30
2019-06-10T12:30:56.231Z,25.70
2019-06-10T12:31:56.123Z,25.70
2019-06-10T12:32:55.379Z,25.20
2019-06-10T12:33:55.328Z,25.70
2019-06-10T12:34:53.092Z,26.10
2019-06-10T12:35:54.892Z,24.60
2019-06-10T12:36:56.205Z,26.30
2019-06-10T12:37:55.927Z,28.40
2019-06-10T12:38:53.376Z,27.50
2019-06-10T12:39:54.845Z,27.70
2019-06-10T12:40:52.499Z,27.20
2019-06-10T12:41:54.834Z,27.30
2019-06-10T12:42:53.081Z,25.50
2019-06-10T12:43:53.044Z,24.30
2019-06-10T12:44:53.840Z,24.30
2019-06-10T12:45:53.975Z,24.70
2019-06-10T12:46:54.030Z,24.80
2019-06-10T12:47:54.807Z,25.40
2019-06-10T12:48:54.011Z,23.60
2019-06-10T12:49:53.363Z,24.40
2019-06-10T12:50:53.928Z,25.80
2019-06-10T12:51:52.899Z,23.80